AFR1434 LFPG-EDDB
Flight info
| Callsign | AFR1434 |
|---|---|
| Flight time | 1h 22m |
| Altitude | 35000 |
| Route | RANUX DCT LIMGO DCT MASEK T278 KLF KLF1R |
| Aircraft | E170/M-SDE2E3FGIJ1RWY/HB1 |
Departure
| Time | 2026-05-07 19:03 |
|---|---|
| Airport | Charles de Gaulle International Airport (LFPG) |
Arrival
| Time | 2026-05-07 20:25 |
|---|---|
| Airport | Berlin Brandenburg Airport (EDDB) |
| Time | Latitude | Longitude | Altitude | Speed | Heading |
|---|---|---|---|---|---|
| 2026-05-07 18:37 | 49.00411 | 2.60113 | 352 ft | 0 kts | 266° |
| 2026-05-07 18:50 | 49.00411 | 2.60122 | 352 ft | 4 kts | 265° |
| 2026-05-07 18:50 | 49.00417 | 2.60162 | 352 ft | 4 kts | 248° |
| 2026-05-07 18:51 | 49.00433 | 2.60192 | 355 ft | 4 kts | 200° |
| 2026-05-07 18:51 | 49.00446 | 2.60193 | 357 ft | 1 kts | 175° |
| 2026-05-07 18:51 | 49.00447 | 2.60193 | 357 ft | 0 kts | 175° |
| 2026-05-07 18:54 | 49.00442 | 2.60194 | 357 ft | 1 kts | 175° |
| 2026-05-07 18:55 | 49.00426 | 2.60196 | 357 ft | 3 kts | 175° |
| 2026-05-07 18:55 | 49.00398 | 2.60199 | 352 ft | 5 kts | 175° |
| 2026-05-07 18:55 | 49.00358 | 2.60196 | 352 ft | 6 kts | 211° |
| 2026-05-07 18:55 | 49.00339 | 2.60133 | 352 ft | 8 kts | 264° |
| 2026-05-07 18:56 | 49.00333 | 2.60041 | 359 ft | 10 kts | 265° |
| 2026-05-07 18:56 | 49.00328 | 2.59928 | 352 ft | 12 kts | 266° |
| 2026-05-07 18:56 | 49.00322 | 2.59809 | 352 ft | 12 kts | 265° |
| 2026-05-07 18:56 | 49.00315 | 2.59675 | 352 ft | 14 kts | 265° |
| 2026-05-07 18:57 | 49.00288 | 2.59563 | 357 ft | 11 kts | 258° |
| 2026-05-07 18:57 | 49.00243 | 2.59483 | 355 ft | 11 kts | 182° |
| 2026-05-07 18:57 | 49.00159 | 2.59492 | 352 ft | 13 kts | 175° |
| 2026-05-07 18:57 | 49.00062 | 2.59504 | 352 ft | 15 kts | 175° |
| 2026-05-07 18:58 | 48.99981 | 2.59439 | 355 ft | 15 kts | 261° |
| 2026-05-07 18:58 | 48.99972 | 2.59274 | 354 ft | 16 kts | 265° |
| 2026-05-07 18:58 | 48.99963 | 2.59097 | 352 ft | 18 kts | 265° |
| 2026-05-07 18:58 | 48.99953 | 2.58898 | 352 ft | 19 kts | 266° |
| 2026-05-07 18:59 | 48.99942 | 2.58686 | 352 ft | 21 kts | 265° |
| 2026-05-07 18:59 | 48.99930 | 2.58462 | 359 ft | 22 kts | 264° |
| 2026-05-07 18:59 | 48.99916 | 2.58222 | 356 ft | 23 kts | 265° |
| 2026-05-07 18:59 | 48.99903 | 2.57973 | 352 ft | 24 kts | 265° |
| 2026-05-07 19:00 | 48.99889 | 2.57714 | 352 ft | 25 kts | 264° |
| 2026-05-07 19:00 | 48.99875 | 2.57442 | 352 ft | 26 kts | 266° |
| 2026-05-07 19:00 | 48.99859 | 2.57159 | 352 ft | 27 kts | 266° |
| 2026-05-07 19:00 | 48.99844 | 2.56866 | 356 ft | 28 kts | 265° |
| 2026-05-07 19:01 | 48.99825 | 2.56652 | 356 ft | 16 kts | 238° |
| 2026-05-07 19:01 | 48.99747 | 2.56609 | 355 ft | 9 kts | 175° |
| 2026-05-07 19:01 | 48.99675 | 2.56617 | 352 ft | 11 kts | 175° |
| 2026-05-07 19:01 | 48.99645 | 2.56684 | 353 ft | 9 kts | 87° |
| 2026-05-07 19:02 | 48.99652 | 2.56798 | 353 ft | 15 kts | 85° |
| 2026-05-07 19:02 | 48.99671 | 2.57160 | 357 ft | 62 kts | 85° |
| 2026-05-07 19:02 | 48.99725 | 2.58184 | 355 ft | 130 kts | 85° |
| 2026-05-07 19:02 | 48.99810 | 2.59800 | 603 ft | 168 kts | 84° |
| 2026-05-07 19:03 | 48.99911 | 2.61591 | 1536 ft | 168 kts | 84° |
| 2026-05-07 19:03 | 49.00008 | 2.63426 | 2143 ft | 181 kts | 85° |
| 2026-05-07 19:03 | 49.00113 | 2.65406 | 2670 ft | 196 kts | 85° |
| 2026-05-07 19:03 | 49.00227 | 2.67583 | 3197 ft | 214 kts | 85° |
| 2026-05-07 19:04 | 49.00351 | 2.69952 | 3662 ft | 234 kts | 85° |
| 2026-05-07 19:04 | 49.00483 | 2.72502 | 4253 ft | 248 kts | 85° |
| 2026-05-07 19:04 | 49.00621 | 2.75191 | 4819 ft | 261 kts | 85° |
| 2026-05-07 19:04 | 49.00765 | 2.77985 | 5407 ft | 269 kts | 85° |
| 2026-05-07 19:05 | 49.00912 | 2.80853 | 6009 ft | 276 kts | 86° |
| 2026-05-07 19:05 | 49.01062 | 2.83776 | 6605 ft | 281 kts | 86° |
| 2026-05-07 19:05 | 49.01214 | 2.86764 | 7182 ft | 284 kts | 86° |
| 2026-05-07 19:05 | 49.01368 | 2.89780 | 7806 ft | 287 kts | 86° |
| 2026-05-07 19:06 | 49.01522 | 2.92818 | 8411 ft | 290 kts | 86° |
| 2026-05-07 19:06 | 49.02150 | 2.98967 | 9596 ft | 299 kts | 79° |
| 2026-05-07 19:06 | 49.02554 | 3.02091 | 10188 ft | 302 kts | 79° |
| 2026-05-07 19:07 | 49.02943 | 3.05254 | 10789 ft | 305 kts | 80° |
| 2026-05-07 19:07 | 49.03322 | 3.08452 | 11401 ft | 307 kts | 81° |
| 2026-05-07 19:07 | 49.03693 | 3.11656 | 12086 ft | 308 kts | 81° |
| 2026-05-07 19:07 | 49.04065 | 3.14878 | 12750 ft | 310 kts | 81° |
| 2026-05-07 19:08 | 49.04440 | 3.18128 | 13373 ft | 314 kts | 81° |
| 2026-05-07 19:08 | 49.04820 | 3.21434 | 13945 ft | 319 kts | 81° |
| 2026-05-07 19:08 | 49.05203 | 3.24784 | 14563 ft | 321 kts | 81° |
| 2026-05-07 19:08 | 49.05587 | 3.28150 | 15175 ft | 324 kts | 81° |
| 2026-05-07 19:09 | 49.05973 | 3.31550 | 15793 ft | 327 kts | 81° |
| 2026-05-07 19:09 | 49.06363 | 3.34984 | 16401 ft | 331 kts | 81° |
| 2026-05-07 19:09 | 49.06756 | 3.38460 | 17004 ft | 335 kts | 80° |
| 2026-05-07 19:09 | 49.07153 | 3.41978 | 17624 ft | 338 kts | 80° |
| 2026-05-07 19:10 | 49.07552 | 3.45526 | 18270 ft | 342 kts | 80° |
| 2026-05-07 19:10 | 49.07954 | 3.49112 | 18868 ft | 344 kts | 80° |
| 2026-05-07 19:10 | 49.08360 | 3.52737 | 19446 ft | 348 kts | 81° |
| 2026-05-07 19:10 | 49.08762 | 3.56393 | 20020 ft | 351 kts | 82° |
| 2026-05-07 19:11 | 49.09024 | 3.60118 | 20608 ft | 355 kts | 85° |
| 2026-05-07 19:11 | 49.09256 | 3.63873 | 21190 ft | 357 kts | 85° |
| 2026-05-07 19:11 | 49.09499 | 3.67661 | 21763 ft | 360 kts | 85° |
| 2026-05-07 19:11 | 49.09746 | 3.71476 | 22328 ft | 363 kts | 84° |
| 2026-05-07 19:12 | 49.09996 | 3.75325 | 22885 ft | 366 kts | 85° |
| 2026-05-07 19:12 | 49.10163 | 3.77891 | 23266 ft | 368 kts | 84° |
| 2026-05-07 19:12 | 49.10419 | 3.81802 | 23821 ft | 371 kts | 84° |
| 2026-05-07 19:12 | 49.10677 | 3.85735 | 24334 ft | 374 kts | 85° |
| 2026-05-07 19:13 | 49.10935 | 3.89694 | 24846 ft | 376 kts | 85° |
| 2026-05-07 19:13 | 49.11193 | 3.93683 | 25347 ft | 379 kts | 85° |
| 2026-05-07 19:13 | 49.11453 | 3.97696 | 25828 ft | 381 kts | 85° |
| 2026-05-07 19:13 | 49.11713 | 4.01735 | 26280 ft | 384 kts | 85° |
| 2026-05-07 19:14 | 49.11972 | 4.05802 | 26717 ft | 387 kts | 85° |
| 2026-05-07 19:14 | 49.12233 | 4.09902 | 27144 ft | 389 kts | 85° |
| 2026-05-07 19:14 | 49.12494 | 4.14021 | 27576 ft | 391 kts | 85° |
| 2026-05-07 19:14 | 49.12754 | 4.18169 | 28005 ft | 394 kts | 85° |
| 2026-05-07 19:15 | 49.13016 | 4.22348 | 28409 ft | 396 kts | 85° |
| 2026-05-07 19:15 | 49.13277 | 4.26549 | 28818 ft | 398 kts | 85° |
| 2026-05-07 19:15 | 49.13538 | 4.30773 | 29209 ft | 401 kts | 85° |
| 2026-05-07 19:15 | 49.13824 | 4.35018 | 29575 ft | 403 kts | 81° |
| 2026-05-07 19:16 | 49.14597 | 4.39141 | 29913 ft | 406 kts | 69° |
| 2026-05-07 19:16 | 49.15668 | 4.43144 | 30237 ft | 408 kts | 67° |
| 2026-05-07 19:16 | 49.16774 | 4.47158 | 30504 ft | 411 kts | 67° |
| 2026-05-07 19:16 | 49.17875 | 4.51197 | 30789 ft | 413 kts | 67° |
| 2026-05-07 19:17 | 49.18980 | 4.55259 | 31060 ft | 415 kts | 67° |
| 2026-05-07 19:17 | 49.20085 | 4.59343 | 31325 ft | 417 kts | 67° |
| 2026-05-07 19:17 | 49.21192 | 4.63458 | 31587 ft | 419 kts | 67° |
| 2026-05-07 19:17 | 49.22295 | 4.67580 | 31862 ft | 420 kts | 67° |
| 2026-05-07 19:18 | 49.23403 | 4.71724 | 32107 ft | 422 kts | 67° |
| 2026-05-07 19:18 | 49.24514 | 4.75887 | 32339 ft | 424 kts | 67° |
| 2026-05-07 19:18 | 49.25628 | 4.80069 | 32567 ft | 425 kts | 67° |
| 2026-05-07 19:18 | 49.26744 | 4.84270 | 32781 ft | 427 kts | 68° |
| 2026-05-07 19:19 | 49.27865 | 4.88491 | 33022 ft | 428 kts | 68° |
| 2026-05-07 19:19 | 49.28985 | 4.92722 | 33160 ft | 431 kts | 67° |
| 2026-05-07 19:19 | 49.31234 | 5.01222 | 33071 ft | 430 kts | 67° |
| 2026-05-07 19:20 | 49.33468 | 5.09696 | 33055 ft | 429 kts | 68° |
| 2026-05-07 19:20 | 49.35697 | 5.18186 | 33058 ft | 429 kts | 68° |
| 2026-05-07 19:21 | 49.37919 | 5.26676 | 33054 ft | 429 kts | 68° |
| 2026-05-07 19:21 | 49.40137 | 5.35180 | 33068 ft | 429 kts | 68° |
| 2026-05-07 19:22 | 49.42330 | 5.43625 | 33055 ft | 429 kts | 68° |
| 2026-05-07 19:22 | 49.44530 | 5.52128 | 33054 ft | 429 kts | 68° |
| 2026-05-07 19:23 | 49.45624 | 5.56368 | 33381 ft | 420 kts | 68° |
| 2026-05-07 19:23 | 49.46686 | 5.60503 | 33937 ft | 413 kts | 68° |
| 2026-05-07 19:23 | 49.47736 | 5.64578 | 34264 ft | 408 kts | 68° |
| 2026-05-07 19:23 | 49.48776 | 5.68630 | 34483 ft | 406 kts | 68° |
| 2026-05-07 19:24 | 49.49812 | 5.72676 | 34633 ft | 407 kts | 68° |
| 2026-05-07 19:24 | 49.50870 | 5.76808 | 34762 ft | 411 kts | 68° |
| 2026-05-07 19:24 | 49.52981 | 5.85059 | 34925 ft | 423 kts | 68° |
| 2026-05-07 19:25 | 49.54052 | 5.89255 | 35241 ft | 422 kts | 68° |
| 2026-05-07 19:25 | 49.55129 | 5.93503 | 35237 ft | 430 kts | 68° |
| 2026-05-07 19:25 | 49.57361 | 6.02276 | 35058 ft | 449 kts | 68° |
| 2026-05-07 19:26 | 49.59651 | 6.11381 | 35029 ft | 463 kts | 68° |
| 2026-05-07 19:26 | 49.62003 | 6.20738 | 35046 ft | 471 kts | 68° |
| 2026-05-07 19:27 | 49.64525 | 6.30071 | 35046 ft | 472 kts | 62° |
| 2026-05-07 19:27 | 49.67610 | 6.39015 | 35045 ft | 472 kts | 60° |
| 2026-05-07 19:28 | 49.70737 | 6.47927 | 35051 ft | 472 kts | 60° |
| 2026-05-07 19:28 | 49.73852 | 6.56857 | 35056 ft | 472 kts | 61° |
| 2026-05-07 19:29 | 49.76958 | 6.65798 | 35053 ft | 472 kts | 61° |
| 2026-05-07 19:29 | 49.80055 | 6.74745 | 35054 ft | 471 kts | 61° |
| 2026-05-07 19:30 | 49.83144 | 6.83700 | 35054 ft | 470 kts | 61° |
| 2026-05-07 19:30 | 49.86220 | 6.92649 | 35058 ft | 471 kts | 61° |
| 2026-05-07 19:31 | 49.89291 | 7.01612 | 35054 ft | 470 kts | 61° |
| 2026-05-07 19:31 | 49.92355 | 7.10583 | 35079 ft | 471 kts | 61° |
| 2026-05-07 19:32 | 49.95389 | 7.19505 | 35077 ft | 471 kts | 61° |
| 2026-05-07 19:32 | 49.98457 | 7.28558 | 35071 ft | 470 kts | 61° |
| 2026-05-07 19:33 | 50.01492 | 7.37538 | 35078 ft | 469 kts | 61° |
| 2026-05-07 19:33 | 50.04498 | 7.46460 | 35071 ft | 469 kts | 61° |
| 2026-05-07 19:34 | 50.07540 | 7.55511 | 35059 ft | 469 kts | 62° |
| 2026-05-07 19:34 | 50.10561 | 7.64514 | 35066 ft | 469 kts | 61° |
| 2026-05-07 19:35 | 50.13573 | 7.73526 | 35064 ft | 469 kts | 62° |
| 2026-05-07 19:35 | 50.16573 | 7.82556 | 35071 ft | 468 kts | 62° |
| 2026-05-07 19:36 | 50.19535 | 7.91496 | 35073 ft | 467 kts | 62° |
| 2026-05-07 19:36 | 50.22512 | 8.00508 | 35070 ft | 467 kts | 62° |
| 2026-05-07 19:37 | 50.25475 | 8.09528 | 35074 ft | 467 kts | 62° |
| 2026-05-07 19:37 | 50.28411 | 8.18591 | 35072 ft | 467 kts | 62° |
| 2026-05-07 19:38 | 50.31327 | 8.27568 | 35075 ft | 467 kts | 62° |
| 2026-05-07 19:38 | 50.33724 | 8.37020 | 35097 ft | 469 kts | 71° |
| 2026-05-07 19:39 | 50.35735 | 8.46707 | 35081 ft | 467 kts | 71° |
| 2026-05-07 19:39 | 50.37750 | 8.56369 | 35076 ft | 467 kts | 71° |
| 2026-05-07 19:40 | 50.39769 | 8.66031 | 35083 ft | 467 kts | 71° |
| 2026-05-07 19:40 | 50.41783 | 8.75709 | 35077 ft | 467 kts | 71° |
| 2026-05-07 19:41 | 50.43788 | 8.85394 | 35074 ft | 467 kts | 71° |
| 2026-05-07 19:41 | 50.45786 | 8.95089 | 35081 ft | 467 kts | 71° |
| 2026-05-07 19:42 | 50.47775 | 9.04790 | 35084 ft | 467 kts | 71° |
| 2026-05-07 19:42 | 50.49759 | 9.14510 | 35082 ft | 467 kts | 71° |
| 2026-05-07 19:43 | 50.51732 | 9.24222 | 35088 ft | 466 kts | 71° |
| 2026-05-07 19:43 | 50.53691 | 9.33919 | 35087 ft | 466 kts | 72° |
| 2026-05-07 19:44 | 50.55644 | 9.43632 | 35089 ft | 466 kts | 72° |
| 2026-05-07 19:44 | 50.57591 | 9.53356 | 35090 ft | 466 kts | 72° |
| 2026-05-07 19:45 | 50.59531 | 9.63090 | 35095 ft | 466 kts | 72° |
| 2026-05-07 19:45 | 50.61459 | 9.72829 | 35094 ft | 466 kts | 72° |
| 2026-05-07 19:46 | 50.63382 | 9.82576 | 35098 ft | 466 kts | 72° |
| 2026-05-07 19:46 | 50.65312 | 9.92338 | 35093 ft | 467 kts | 72° |
| 2026-05-07 19:47 | 50.67219 | 10.02123 | 35096 ft | 467 kts | 72° |
| 2026-05-07 19:47 | 50.69116 | 10.11911 | 35091 ft | 467 kts | 72° |
| 2026-05-07 19:48 | 50.71415 | 10.21443 | 35106 ft | 465 kts | 58° |
| 2026-05-07 19:48 | 50.74941 | 10.30029 | 35076 ft | 466 kts | 55° |
| 2026-05-07 19:49 | 50.78504 | 10.38556 | 35086 ft | 466 kts | 56° |
| 2026-05-07 19:49 | 50.82054 | 10.47121 | 35083 ft | 466 kts | 56° |
| 2026-05-07 19:50 | 50.85596 | 10.55723 | 35094 ft | 466 kts | 56° |
| 2026-05-07 19:50 | 50.89111 | 10.64296 | 35092 ft | 464 kts | 56° |
| 2026-05-07 19:51 | 50.92620 | 10.72883 | 35100 ft | 464 kts | 56° |
| 2026-05-07 19:51 | 50.96124 | 10.81488 | 35104 ft | 464 kts | 56° |
| 2026-05-07 19:52 | 50.99624 | 10.90111 | 35103 ft | 464 kts | 56° |
| 2026-05-07 19:52 | 51.03097 | 10.98693 | 35103 ft | 465 kts | 56° |
| 2026-05-07 19:53 | 51.06589 | 11.07356 | 35096 ft | 465 kts | 57° |
| 2026-05-07 19:53 | 51.08326 | 11.11675 | 34947 ft | 459 kts | 57° |
| 2026-05-07 19:53 | 51.10009 | 11.15882 | 34694 ft | 443 kts | 57° |
| 2026-05-07 19:54 | 51.11635 | 11.19951 | 34465 ft | 429 kts | 57° |
| 2026-05-07 19:54 | 51.13208 | 11.23891 | 34229 ft | 416 kts | 57° |
| 2026-05-07 19:54 | 51.14733 | 11.27715 | 33967 ft | 403 kts | 57° |
| 2026-05-07 19:54 | 51.16220 | 11.31451 | 33687 ft | 397 kts | 57° |
| 2026-05-07 19:55 | 51.17703 | 11.35184 | 33438 ft | 402 kts | 57° |
| 2026-05-07 19:55 | 51.19215 | 11.38982 | 33157 ft | 408 kts | 56° |
| 2026-05-07 19:55 | 51.20744 | 11.42806 | 32878 ft | 410 kts | 56° |
| 2026-05-07 19:55 | 51.22281 | 11.46658 | 32389 ft | 413 kts | 57° |
| 2026-05-07 19:56 | 51.23820 | 11.50517 | 31897 ft | 412 kts | 56° |
| 2026-05-07 19:56 | 51.25350 | 11.54360 | 31429 ft | 410 kts | 56° |
| 2026-05-07 19:56 | 51.26873 | 11.58200 | 30922 ft | 409 kts | 56° |
| 2026-05-07 19:56 | 51.28389 | 11.62030 | 30402 ft | 409 kts | 56° |
| 2026-05-07 19:57 | 51.29394 | 11.64571 | 30058 ft | 408 kts | 56° |
| 2026-05-07 19:57 | 51.30910 | 11.68401 | 29470 ft | 408 kts | 56° |
| 2026-05-07 19:57 | 51.32422 | 11.72233 | 28897 ft | 409 kts | 56° |
| 2026-05-07 19:57 | 51.33945 | 11.76092 | 28324 ft | 410 kts | 56° |
| 2026-05-07 19:58 | 51.35468 | 11.79957 | 27761 ft | 411 kts | 56° |
| 2026-05-07 19:58 | 51.36985 | 11.83829 | 27181 ft | 410 kts | 56° |
| 2026-05-07 19:58 | 51.38490 | 11.87679 | 26619 ft | 405 kts | 56° |
| 2026-05-07 19:58 | 51.39980 | 11.91478 | 26079 ft | 401 kts | 56° |
| 2026-05-07 19:59 | 51.41457 | 11.95238 | 25546 ft | 397 kts | 56° |
| 2026-05-07 19:59 | 51.42917 | 11.98961 | 25037 ft | 393 kts | 56° |
| 2026-05-07 19:59 | 51.44361 | 12.02679 | 24539 ft | 392 kts | 57° |
| 2026-05-07 19:59 | 51.45792 | 12.06382 | 24057 ft | 390 kts | 57° |
| 2026-05-07 20:00 | 51.47221 | 12.10057 | 23579 ft | 386 kts | 56° |
| 2026-05-07 20:00 | 51.48632 | 12.13689 | 23019 ft | 381 kts | 56° |
| 2026-05-07 20:00 | 51.50027 | 12.17278 | 22489 ft | 377 kts | 56° |
| 2026-05-07 20:00 | 51.51403 | 12.20825 | 21988 ft | 373 kts | 56° |
| 2026-05-07 20:01 | 51.52760 | 12.24355 | 21484 ft | 370 kts | 57° |
| 2026-05-07 20:01 | 51.54098 | 12.27861 | 21031 ft | 366 kts | 57° |
| 2026-05-07 20:01 | 51.55414 | 12.31301 | 21068 ft | 361 kts | 57° |
| 2026-05-07 20:01 | 51.56737 | 12.34763 | 21100 ft | 363 kts | 57° |
| 2026-05-07 20:02 | 51.58025 | 12.38145 | 20961 ft | 347 kts | 57° |
| 2026-05-07 20:02 | 51.59266 | 12.41402 | 20683 ft | 336 kts | 57° |
| 2026-05-07 20:02 | 51.60472 | 12.44558 | 20338 ft | 327 kts | 56° |
| 2026-05-07 20:02 | 51.61654 | 12.47650 | 19947 ft | 321 kts | 57° |
| 2026-05-07 20:03 | 51.62813 | 12.50695 | 19509 ft | 318 kts | 57° |
| 2026-05-07 20:03 | 51.63961 | 12.53720 | 19022 ft | 316 kts | 57° |
| 2026-05-07 20:03 | 51.65105 | 12.56742 | 18495 ft | 316 kts | 57° |
| 2026-05-07 20:03 | 51.66250 | 12.59764 | 17852 ft | 317 kts | 57° |
| 2026-05-07 20:04 | 51.67395 | 12.62782 | 17428 ft | 317 kts | 57° |
| 2026-05-07 20:04 | 51.68576 | 12.65901 | 17242 ft | 332 kts | 57° |
| 2026-05-07 20:04 | 51.69798 | 12.69124 | 17012 ft | 342 kts | 58° |
| 2026-05-07 20:04 | 51.71047 | 12.72421 | 16740 ft | 346 kts | 58° |
| 2026-05-07 20:05 | 51.72281 | 12.75685 | 16468 ft | 345 kts | 58° |
| 2026-05-07 20:05 | 51.73534 | 12.79027 | 16197 ft | 343 kts | 58° |
| 2026-05-07 20:05 | 51.74751 | 12.82279 | 15938 ft | 342 kts | 59° |
| 2026-05-07 20:05 | 51.75994 | 12.85598 | 15677 ft | 340 kts | 59° |
| 2026-05-07 20:06 | 51.77201 | 12.88821 | 15431 ft | 339 kts | 59° |
| 2026-05-07 20:06 | 51.78418 | 12.92078 | 15191 ft | 338 kts | 59° |
| 2026-05-07 20:06 | 51.79628 | 12.95327 | 14969 ft | 335 kts | 59° |
| 2026-05-07 20:06 | 51.80818 | 12.98530 | 14695 ft | 322 kts | 59° |
| 2026-05-07 20:07 | 51.81932 | 13.01541 | 14455 ft | 311 kts | 59° |
| 2026-05-07 20:07 | 51.83038 | 13.04531 | 14224 ft | 302 kts | 59° |
| 2026-05-07 20:07 | 51.84111 | 13.07433 | 14026 ft | 300 kts | 59° |
| 2026-05-07 20:07 | 51.85167 | 13.10300 | 13851 ft | 302 kts | 59° |
| 2026-05-07 20:08 | 51.86246 | 13.13214 | 13674 ft | 302 kts | 59° |
| 2026-05-07 20:08 | 51.87329 | 13.16128 | 13483 ft | 302 kts | 59° |
| 2026-05-07 20:08 | 51.88409 | 13.19032 | 13245 ft | 301 kts | 59° |
| 2026-05-07 20:08 | 51.89481 | 13.21935 | 12971 ft | 300 kts | 59° |
| 2026-05-07 20:09 | 51.90552 | 13.24826 | 12697 ft | 298 kts | 59° |
| 2026-05-07 20:09 | 51.91628 | 13.27674 | 12441 ft | 296 kts | 59° |
| 2026-05-07 20:09 | 51.92689 | 13.30538 | 12179 ft | 297 kts | 59° |
| 2026-05-07 20:10 | 51.94795 | 13.36335 | 11359 ft | 297 kts | 59° |
| 2026-05-07 20:10 | 51.95836 | 13.39211 | 10940 ft | 294 kts | 59° |
| 2026-05-07 20:10 | 51.96870 | 13.42044 | 10580 ft | 290 kts | 59° |
| 2026-05-07 20:10 | 51.98023 | 13.44691 | 10210 ft | 286 kts | 46° |
| 2026-05-07 20:11 | 51.99606 | 13.46606 | 9828 ft | 284 kts | 26° |
| 2026-05-07 20:11 | 52.01499 | 13.47424 | 9445 ft | 282 kts | 4° |
| 2026-05-07 20:11 | 52.03423 | 13.47035 | 9072 ft | 279 kts | 342° |
| 2026-05-07 20:11 | 52.05094 | 13.45528 | 8700 ft | 273 kts | 320° |
| 2026-05-07 20:12 | 52.06268 | 13.43193 | 8343 ft | 264 kts | 298° |
| 2026-05-07 20:12 | 52.06835 | 13.40414 | 7987 ft | 257 kts | 278° |
| 2026-05-07 20:12 | 52.06816 | 13.37562 | 7661 ft | 249 kts | 265° |
| 2026-05-07 20:12 | 52.06650 | 13.34778 | 7356 ft | 247 kts | 265° |
| 2026-05-07 20:13 | 52.06479 | 13.31976 | 7080 ft | 252 kts | 265° |
| 2026-05-07 20:13 | 52.06311 | 13.29129 | 6797 ft | 253 kts | 265° |
| 2026-05-07 20:13 | 52.06158 | 13.26280 | 6505 ft | 253 kts | 266° |
| 2026-05-07 20:13 | 52.06013 | 13.23439 | 6185 ft | 252 kts | 266° |
| 2026-05-07 20:14 | 52.05882 | 13.20652 | 6132 ft | 240 kts | 267° |
| 2026-05-07 20:14 | 52.05811 | 13.17944 | 6126 ft | 241 kts | 269° |
| 2026-05-07 20:14 | 52.05758 | 13.15193 | 6142 ft | 245 kts | 269° |
| 2026-05-07 20:14 | 52.05817 | 13.12628 | 6142 ft | 244 kts | 283° |
| 2026-05-07 20:15 | 52.06475 | 13.10206 | 6099 ft | 228 kts | 310° |
| 2026-05-07 20:15 | 52.07596 | 13.08545 | 6073 ft | 210 kts | 331° |
| 2026-05-07 20:15 | 52.08876 | 13.07665 | 5929 ft | 194 kts | 349° |
| 2026-05-07 20:15 | 52.10194 | 13.07462 | 5664 ft | 188 kts | 4° |
| 2026-05-07 20:16 | 52.11486 | 13.07697 | 5398 ft | 186 kts | 14° |
| 2026-05-07 20:16 | 52.12752 | 13.08154 | 5107 ft | 188 kts | 14° |
| 2026-05-07 20:16 | 52.14026 | 13.08601 | 4797 ft | 187 kts | 14° |
| 2026-05-07 20:16 | 52.15262 | 13.09126 | 4465 ft | 185 kts | 17° |
| 2026-05-07 20:17 | 52.16516 | 13.09680 | 4134 ft | 184 kts | 17° |
| 2026-05-07 20:17 | 52.17742 | 13.10219 | 3851 ft | 181 kts | 17° |
| 2026-05-07 20:17 | 52.18949 | 13.10743 | 3590 ft | 176 kts | 17° |
| 2026-05-07 20:17 | 52.20117 | 13.11246 | 3319 ft | 171 kts | 17° |
| 2026-05-07 20:18 | 52.21243 | 13.11726 | 3062 ft | 167 kts | 17° |
| 2026-05-07 20:18 | 52.22324 | 13.12178 | 3129 ft | 159 kts | 17° |
| 2026-05-07 20:18 | 52.23426 | 13.12640 | 3152 ft | 166 kts | 17° |
| 2026-05-07 20:18 | 52.24553 | 13.13116 | 3167 ft | 168 kts | 17° |
| 2026-05-07 20:19 | 52.25684 | 13.13610 | 3186 ft | 168 kts | 23° |
| 2026-05-07 20:19 | 52.26574 | 13.14805 | 3112 ft | 166 kts | 51° |
| 2026-05-07 20:19 | 52.27226 | 13.16340 | 3103 ft | 166 kts | 68° |
| 2026-05-07 20:19 | 52.27625 | 13.18118 | 3121 ft | 168 kts | 68° |
| 2026-05-07 20:20 | 52.28094 | 13.19865 | 3108 ft | 169 kts | 66° |
| 2026-05-07 20:20 | 52.28533 | 13.21633 | 3090 ft | 167 kts | 69° |
| 2026-05-07 20:20 | 52.28952 | 13.23396 | 3089 ft | 167 kts | 68° |
| 2026-05-07 20:20 | 52.29378 | 13.25172 | 3086 ft | 172 kts | 69° |
| 2026-05-07 20:21 | 52.29825 | 13.27036 | 2792 ft | 176 kts | 69° |
| 2026-05-07 20:21 | 52.30261 | 13.28878 | 2547 ft | 172 kts | 69° |
| 2026-05-07 20:21 | 52.30685 | 13.30677 | 2314 ft | 167 kts | 68° |
| 2026-05-07 20:21 | 52.31105 | 13.32387 | 2096 ft | 157 kts | 68° |
| 2026-05-07 20:22 | 52.31489 | 13.33988 | 1872 ft | 145 kts | 68° |
| 2026-05-07 20:22 | 52.31834 | 13.35444 | 1657 ft | 131 kts | 68° |
| 2026-05-07 20:22 | 52.32155 | 13.36803 | 1525 ft | 127 kts | 68° |
| 2026-05-07 20:22 | 52.32474 | 13.38138 | 1336 ft | 125 kts | 67° |
| 2026-05-07 20:23 | 52.32792 | 13.39441 | 1177 ft | 124 kts | 67° |
| 2026-05-07 20:23 | 52.33111 | 13.40764 | 1013 ft | 126 kts | 66° |
| 2026-05-07 20:23 | 52.33431 | 13.42111 | 862 ft | 129 kts | 67° |
| 2026-05-07 20:23 | 52.33753 | 13.43509 | 672 ft | 133 kts | 68° |
| 2026-05-07 20:24 | 52.34096 | 13.44933 | 454 ft | 135 kts | 68° |
| 2026-05-07 20:24 | 52.34430 | 13.46347 | 269 ft | 135 kts | 69° |
| 2026-05-07 20:24 | 52.34765 | 13.47774 | 152 ft | 122 kts | 69° |
| 2026-05-07 20:24 | 52.35018 | 13.48844 | 152 ft | 85 kts | 69° |
| 2026-05-07 20:25 | 52.35217 | 13.49663 | 152 ft | 66 kts | 67° |
| 2026-05-07 20:25 | 52.35404 | 13.50032 | 152 ft | 31 kts | 39° |
| 2026-05-07 20:25 | 52.35447 | 13.50089 | 152 ft | 0 kts | 39° |
| 2026-05-07 20:26 | 52.35452 | 13.50096 | 152 ft | 2 kts | 39° |
| 2026-05-07 20:26 | 52.35464 | 13.50112 | 152 ft | 4 kts | 39° |
| 2026-05-07 20:26 | 52.35489 | 13.50144 | 152 ft | 5 kts | 38° |
| 2026-05-07 20:27 | 52.35521 | 13.50186 | 145 ft | 7 kts | 38° |
| 2026-05-07 20:27 | 52.35560 | 13.50236 | 152 ft | 8 kts | 38° |
| 2026-05-07 20:27 | 52.35598 | 13.50301 | 152 ft | 8 kts | 60° |
| 2026-05-07 20:27 | 52.35621 | 13.50390 | 152 ft | 9 kts | 69° |
| 2026-05-07 20:28 | 52.35645 | 13.50490 | 152 ft | 9 kts | 69° |
| 2026-05-07 20:28 | 52.35668 | 13.50586 | 152 ft | 9 kts | 68° |
| 2026-05-07 20:28 | 52.35692 | 13.50669 | 152 ft | 7 kts | 46° |
| 2026-05-07 20:28 | 52.35732 | 13.50690 | 152 ft | 6 kts | 353° |
| 2026-05-07 20:29 | 52.35775 | 13.50697 | 152 ft | 6 kts | 29° |
| 2026-05-07 20:29 | 52.35800 | 13.50738 | 152 ft | 5 kts | 52° |
| 2026-05-07 20:29 | 52.35834 | 13.50775 | 152 ft | 7 kts | 8° |
| 2026-05-07 20:29 | 52.35881 | 13.50756 | 152 ft | 7 kts | 339° |
| 2026-05-07 20:30 | 52.35924 | 13.50728 | 152 ft | 6 kts | 339° |
| 2026-05-07 20:30 | 52.35962 | 13.50705 | 152 ft | 5 kts | 339° |
| 2026-05-07 20:30 | 52.35996 | 13.50684 | 152 ft | 5 kts | 339° |
| 2026-05-07 20:30 | 52.36026 | 13.50665 | 152 ft | 4 kts | 339° |
| 2026-05-07 20:31 | 52.36052 | 13.50661 | 152 ft | 3 kts | 33° |
| 2026-05-07 20:31 | 52.36065 | 13.50690 | 152 ft | 4 kts | 61° |
| 2026-05-07 20:31 | 52.36077 | 13.50739 | 152 ft | 5 kts | 69° |
| 2026-05-07 20:31 | 52.36086 | 13.50776 | 152 ft | 0 kts | 69° |
| 2026-05-07 20:32 | 52.36086 | 13.50777 | 152 ft | 0 kts | 69° |